Time;durP1;ratioP1;P1;durP2;ratioP2;P2;SDS_P1;SDS_P2;PMS_P1;PMS_P2;Temp;Humidity;BMP_temperature;BMP_pressure;BME280_temperature;BME280_humidity;BME280_pressure;Samples;Min_cycle;Max_cycle;Signal;HPM_P1;HPM_P2
2022/10/02 00:02:24;;;;;;;10.13;3.67;;;;;;;11.91;100.00;100176.84;4970278;28;20227;-64
2022/10/02 00:05:20;;;;;;;10.83;3.50;;;;;;;12.04;100.00;100179.56;4989884;28;20640;-64
2022/10/02 00:07:57;;;;;;;17.67;3.80;;;;;;;12.02;100.00;100178.84;5006263;28;20646;-64
2022/10/02 00:10:33;;;;;;;13.40;3.00;;;;;;;11.97;100.00;100182.59;4981649;28;20691;-63
2022/10/02 00:13:06;;;;;;;15.87;3.33;;;;;;;11.97;100.00;100182.59;4988629;28;20304;-64
2022/10/02 00:15:34;;;;;;;14.73;3.70;;;;;;;12.04;100.00;100199.38;4990713;28;20192;-64
2022/10/02 00:18:10;;;;;;;15.43;3.37;;;;;;;11.97;100.00;100198.91;4991796;28;20191;-63
2022/10/02 00:20:57;;;;;;;13.50;3.33;;;;;;;11.99;100.00;100211.72;4979583;28;20269;-63
2022/10/02 00:23:36;;;;;;;12.90;3.30;;;;;;;11.93;100.00;100205.97;4982314;28;20187;-63
2022/10/02 00:26:26;;;;;;;16.90;3.87;;;;;;;12.01;100.00;100205.53;4982671;28;20179;-63
2022/10/02 00:29:13;;;;;;;9.13;3.50;;;;;;;12.05;100.00;100211.34;4991410;28;20221;-63
2022/10/02 00:31:46;;;;;;;17.07;3.57;;;;;;;11.99;100.00;100209.13;4988307;28;20725;-63
2022/10/02 00:34:21;;;;;;;13.13;3.33;;;;;;;12.02;100.00;100208.94;4991076;28;20666;-63
2022/10/02 00:37:11;;;;;;;17.73;4.20;;;;;;;12.04;100.00;100214.84;4992379;28;20187;-63
2022/10/02 00:40:24;;;;;;;17.53;3.47;;;;;;;12.06;100.00;100221.56;5007267;28;20278;-63
2022/10/02 00:43:14;;;;;;;12.20;3.20;;;;;;;12.07;100.00;100222.41;4964598;28;20237;-64
2022/10/02 00:45:48;;;;;;;14.53;3.23;;;;;;;12.11;100.00;100204.06;4989034;28;20722;-64
2022/10/02 00:48:35;;;;;;;12.10;3.63;;;;;;;12.20;100.00;100212.19;4986221;28;20190;-64
2022/10/02 00:51:55;;;;;;;15.37;3.60;;;;;;;12.16;100.00;100203.81;4973633;28;20234;-64
2022/10/02 00:54:47;;;;;;;11.33;3.00;;;;;;;12.14;100.00;100215.13;4976945;28;20709;-64
2022/10/02 00:57:40;;;;;;;10.83;2.60;;;;;;;12.07;100.00;100209.53;4991535;28;20224;-64
2022/10/02 01:00:17;;;;;;;9.80;2.83;;;;;;;12.08;100.00;100203.41;4979520;28;20625;-64
2022/10/02 01:03:04;;;;;;;11.20;2.67;;;;;;;12.18;100.00;100191.66;4996400;28;20175;-64
2022/10/02 01:05:31;;;;;;;13.77;2.83;;;;;;;12.27;100.00;100180.78;4989880;28;20222;-64
2022/10/02 01:07:56;;;;;;;11.97;3.20;;;;;;;12.29;100.00;100197.91;4989818;28;20175;-64
2022/10/02 01:10:24;;;;;;;11.17;3.23;;;;;;;12.27;100.00;100196.25;4985276;28;20237;-64
2022/10/02 01:12:50;;;;;;;12.27;3.27;;;;;;;12.27;100.00;100192.84;4994777;28;20489;-64
2022/10/02 01:15:18;;;;;;;11.53;3.27;;;;;;;12.22;100.00;100200.03;4989376;28;20187;-64
2022/10/02 01:17:45;;;;;;;7.90;2.47;;;;;;;12.31;100.00;100212.38;4992142;28;20277;-63
2022/10/02 01:20:18;;;;;;;14.47;2.53;;;;;;;12.33;100.00;100209.69;4983336;28;20190;-64
2022/10/02 01:22:51;;;;;;;14.23;3.03;;;;;;;12.25;100.00;100218.75;4996096;28;20183;-64
2022/10/02 01:25:16;;;;;;;11.63;2.93;;;;;;;12.33;100.00;100232.91;4991405;28;20214;-63
2022/10/02 01:27:42;;;;;;;9.80;2.47;;;;;;;12.37;100.00;100231.81;4992211;28;20183;-64
2022/10/02 01:30:11;;;;;;;10.00;2.90;;;;;;;12.36;100.00;100235.31;4982539;28;20179;-64
2022/10/02 01:32:40;;;;;;;10.73;2.57;;;;;;;12.37;100.00;100240.38;4992688;28;20243;-64
2022/10/02 01:35:06;;;;;;;11.83;3.10;;;;;;;12.40;100.00;100235.03;4991051;28;20223;-64
2022/10/02 01:37:35;;;;;;;12.17;2.80;;;;;;;12.51;100.00;100220.66;4991947;28;20184;-64
2022/10/02 01:40:23;;;;;;;6.57;2.30;;;;;;;12.43;100.00;100205.66;4990513;28;20662;-63
2022/10/02 01:42:49;;;;;;;11.27;2.97;;;;;;;12.47;100.00;100208.88;4978973;28;20219;-64
2022/10/02 01:45:14;;;;;;;10.60;2.50;;;;;;;12.48;100.00;100213.94;4990038;28;20753;-64
2022/10/02 01:47:39;;;;;;;13.37;2.70;;;;;;;12.51;100.00;100228.41;4981594;28;20219;-65
2022/10/02 01:50:29;;;;;;;12.80;3.83;;;;;;;12.40;100.00;100224.72;4982466;28;20595;-64
2022/10/02 01:53:06;;;;;;;10.90;3.07;;;;;;;12.37;100.00;100227.47;4977026;28;20195;-64
2022/10/02 01:56:05;;;;;;;10.60;2.70;;;;;;;12.43;100.00;100231.44;4991370;28;20643;-64
2022/10/02 01:58:53;;;;;;;8.47;2.43;;;;;;;12.35;100.00;100226.72;4982999;28;20707;-64
2022/10/02 02:01:36;;;;;;;10.33;2.60;;;;;;;12.37;100.00;100230.06;4980650;28;20238;-64
2022/10/02 02:04:12;;;;;;;17.97;3.10;;;;;;;12.41;100.00;100231.53;4985485;28;20199;-64
2022/10/02 02:06:37;;;;;;;12.77;3.03;;;;;;;12.55;100.00;100228.13;4987563;28;20184;-64
2022/10/02 02:09:11;;;;;;;9.97;2.67;;;;;;;12.48;100.00;100229.41;4992102;28;20214;-64
2022/10/02 02:11:43;;;;;;;9.27;3.10;;;;;;;12.57;100.00;100238.34;4983489;28;20235;-64
2022/10/02 02:14:16;;;;;;;11.70;3.23;;;;;;;12.56;100.00;100228.94;4994218;28;20269;-64
2022/10/02 02:16:44;;;;;;;9.33;2.43;;;;;;;12.63;100.00;100234.56;4991818;28;20195;-64
2022/10/02 02:19:29;;;;;;;9.73;2.73;;;;;;;12.56;100.00;100232.34;4995562;28;20278;-64
2022/10/02 02:22:10;;;;;;;10.50;3.03;;;;;;;12.58;100.00;100233.09;4983263;28;20227;-64
2022/10/02 02:24:44;;;;;;;13.50;2.77;;;;;;;12.53;100.00;100236.88;4986765;28;20266;-64
2022/10/02 02:27:16;;;;;;;12.27;3.23;;;;;;;12.70;100.00;100230.69;4996029;28;20675;-64
2022/10/02 02:29:43;;;;;;;11.87;2.63;;;;;;;12.71;100.00;100233.19;4993790;28;20262;-65
2022/10/02 02:32:15;;;;;;;12.93;2.80;;;;;;;12.69;100.00;100231.59;4981742;28;20223;-64
2022/10/02 02:34:46;;;;;;;10.60;2.97;;;;;;;12.78;100.00;100220.72;4983402;28;20302;-64
2022/10/02 02:37:17;;;;;;;11.83;3.10;;;;;;;12.84;100.00;100222.91;4993726;28;20647;-64
2022/10/02 02:39:58;;;;;;;6.77;2.43;;;;;;;12.77;100.00;100231.16;4993803;28;20194;-64
2022/10/02 02:42:28;;;;;;;14.93;3.63;;;;;;;12.72;100.00;100229.66;4979676;28;20223;-64
2022/10/02 02:45:17;;;;;;;15.10;3.20;;;;;;;12.68;100.00;100228.19;4992741;28;20279;-64
2022/10/02 02:47:58;;;;;;;10.00;2.60;;;;;;;12.79;100.00;100237.88;4985470;28;20633;-64
2022/10/02 02:50:32;;;;;;;14.87;2.73;;;;;;;12.76;100.00;100238.03;4986407;28;20223;-64
2022/10/02 02:53:03;;;;;;;8.90;2.27;;;;;;;12.78;100.00;100231.03;5000904;28;20234;-65
2022/10/02 02:55:42;;;;;;;13.03;2.70;;;;;;;12.70;100.00;100223.78;4993788;28;20277;-64
2022/10/02 02:58:45;;;;;;;11.80;2.57;;;;;;;12.66;100.00;100232.63;4980908;28;20258;-64
2022/10/02 03:01:11;;;;;;;12.97;3.20;;;;;;;12.77;100.00;100236.31;4968677;28;20278;-64
2022/10/02 03:03:36;;;;;;;7.20;2.50;;;;;;;12.80;100.00;100234.38;4992683;28;20192;-64
2022/10/02 03:06:20;;;;;;;9.80;2.47;;;;;;;12.70;100.00;100231.53;4993717;28;20199;-64
2022/10/02 03:08:49;;;;;;;10.50;2.63;;;;;;;12.78;100.00;100237.97;4988576;28;20278;-64
2022/10/02 03:11:46;;;;;;;11.20;2.93;;;;;;;12.65;100.00;100237.88;4985994;28;20250;-64
2022/10/02 03:14:22;;;;;;;12.53;2.90;;;;;;;12.67;100.00;100234.28;4988568;28;20264;-64
2022/10/02 03:17:24;;;;;;;12.13;2.60;;;;;;;12.57;100.00;100228.84;4978266;28;20574;-64
2022/10/02 03:19:56;;;;;;;14.97;2.83;;;;;;;12.64;100.00;100237.06;4993614;28;20590;-64
2022/10/02 03:22:40;;;;;;;12.67;2.43;;;;;;;12.60;100.00;100238.16;4979724;28;20231;-64
2022/10/02 03:25:20;;;;;;;13.27;3.67;;;;;;;12.55;100.00;100232.44;4992731;28;20184;-64
2022/10/02 03:27:55;;;;;;;9.90;2.73;;;;;;;12.59;100.00;100233.94;4994594;28;20198;-64
2022/10/02 03:30:20;;;;;;;12.73;3.53;;;;;;;12.65;100.00;100235.28;4962626;28;20245;-65
2022/10/02 03:32:50;;;;;;;12.20;2.80;;;;;;;12.67;100.00;100230.88;4972992;28;20207;-64
2022/10/02 03:35:16;;;;;;;9.83;2.57;;;;;;;12.58;100.00;100235.66;4989132;28;20211;-64
2022/10/02 03:37:44;;;;;;;13.83;3.00;;;;;;;12.63;100.00;100237.97;4991431;28;20266;-64
2022/10/02 03:40:10;;;;;;;11.50;3.00;;;;;;;12.64;100.00;100236.22;4984740;28;20286;-64
2022/10/02 03:42:36;;;;;;;11.87;2.83;;;;;;;12.60;100.00;100235.56;5002600;28;20196;-65
2022/10/02 03:45:03;;;;;;;8.17;2.77;;;;;;;12.63;100.00;100235.41;4991202;28;20230;-64
2022/10/02 03:47:29;;;;;;;13.27;3.67;;;;;;;12.64;100.00;100247.38;4992964;28;20329;-64
2022/10/02 03:49:54;;;;;;;13.53;3.47;;;;;;;12.59;100.00;100237.34;4992837;28;20671;-64
2022/10/02 03:52:22;;;;;;;9.27;2.60;;;;;;;12.64;100.00;100231.91;4986608;28;20223;-64
2022/10/02 03:54:53;;;;;;;9.50;3.60;;;;;;;12.66;100.00;100235.19;4991119;28;20183;-64
2022/10/02 03:57:23;;;;;;;12.37;3.83;;;;;;;12.57;100.00;100235.78;4993390;28;20183;-64
2022/10/02 04:00:06;;;;;;;16.27;3.50;;;;;;;12.52;100.00;100233.47;4992842;28;20184;-64
2022/10/02 04:02:36;;;;;;;9.97;3.00;;;;;;;12.64;100.00;100236.22;4982379;28;20686;-64
2022/10/02 04:05:26;;;;;;;11.43;3.50;;;;;;;12.48;100.00;100231.16;4992964;28;20290;-64
2022/10/02 04:07:58;;;;;;;14.40;3.17;;;;;;;12.45;100.00;100231.34;4992476;28;20219;-65
2022/10/02 04:10:31;;;;;;;10.83;3.03;;;;;;;12.44;100.00;100227.97;4978518;28;20266;-64
2022/10/02 04:13:13;;;;;;;20.67;3.30;;;;;;;12.50;100.00;100231.91;4973064;28;20650;-64
2022/10/02 04:16:04;;;;;;;12.73;2.87;;;;;;;12.42;100.00;100232.38;4984605;28;20580;-64
2022/10/02 04:18:41;;;;;;;12.13;3.30;;;;;;;12.41;100.00;100231.53;4992494;28;20591;-65
2022/10/02 04:21:29;;;;;;;12.73;3.33;;;;;;;12.47;100.00;100232.09;4976473;28;20239;-64
2022/10/02 04:24:03;;;;;;;12.23;3.33;;;;;;;12.50;100.00;100237.91;4991788;28;20229;-64
2022/10/02 04:26:34;;;;;;;11.37;3.33;;;;;;;12.51;100.00;100236.16;4991365;28;20184;-64
2022/10/02 04:29:14;;;;;;;16.23;3.70;;;;;;;12.51;100.00;100239.53;4984069;28;20549;-64
2022/10/02 04:31:40;;;;;;;13.63;3.87;;;;;;;12.62;100.00;100248.41;4981062;28;20321;-64
2022/10/02 04:34:06;;;;;;;10.43;3.23;;;;;;;12.67;100.00;100241.19;4978834;28;20255;-65
2022/10/02 04:36:52;;;;;;;17.07;3.70;;;;;;;12.67;100.00;100238.63;4989442;28;20234;-64
2022/10/02 04:39:32;;;;;;;19.60;3.60;;;;;;;12.65;100.00;100243.03;4992540;28;20187;-65
2022/10/02 04:42:25;;;;;;;18.57;3.30;;;;;;;12.56;100.00;100237.50;4986264;28;20226;-64
2022/10/02 04:44:59;;;;;;;10.87;3.57;;;;;;;12.62;100.00;100246.63;4984235;28;20183;-65
2022/10/02 04:47:27;;;;;;;16.07;4.77;;;;;;;12.71;100.00;100243.50;4992995;28;20637;-64
2022/10/02 04:50:14;;;;;;;16.47;4.20;;;;;;;12.66;100.00;100249.88;4989630;28;20184;-64
2022/10/02 04:53:11;;;;;;;14.07;3.50;;;;;;;12.67;100.00;100249.75;4962053;28;20314;-64
2022/10/02 04:56:02;;;;;;;15.73;3.97;;;;;;;12.66;100.00;100248.09;4990290;28;20195;-65
2022/10/02 04:58:50;;;;;;;18.17;4.37;;;;;;;12.66;100.00;100249.88;4981860;28;20199;-64
2022/10/02 05:01:41;;;;;;;19.63;4.27;;;;;;;12.56;100.00;100249.59;4976466;28;20241;-65
2022/10/02 05:04:29;;;;;;;12.57;3.77;;;;;;;12.54;100.00;100247.09;4985712;28;20195;-65
2022/10/02 05:07:15;;;;;;;11.57;3.70;;;;;;;12.62;100.00;100245.81;4979007;28;20191;-65
2022/10/02 05:10:00;;;;;;;13.37;3.93;;;;;;;12.64;100.00;100252.53;4985238;28;20213;-65
2022/10/02 05:12:41;;;;;;;12.93;4.03;;;;;;;12.64;100.00;100241.38;4977150;28;20239;-65
2022/10/02 05:15:39;;;;;;;9.47;3.47;;;;;;;12.53;100.00;100240.28;4988649;28;20677;-65
2022/10/02 05:18:23;;;;;;;11.30;4.07;;;;;;;12.59;100.00;100241.69;4992230;28;20331;-65
2022/10/02 05:21:08;;;;;;;12.70;3.90;;;;;;;12.53;100.00;100242.06;4986562;28;20230;-65
2022/10/02 05:24:05;;;;;;;12.90;4.07;;;;;;;12.56;100.00;100247.81;4989274;28;20278;-65
2022/10/02 05:26:56;;;;;;;14.17;4.27;;;;;;;12.59;100.00;100241.69;4991110;28;20187;-65
2022/10/02 05:29:27;;;;;;;13.07;3.90;;;;;;;12.57;100.00;100243.50;4992406;28;20627;-66
2022/10/02 05:32:23;;;;;;;10.40;3.77;;;;;;;12.40;100.00;100245.38;4978174;28;20351;-66
2022/10/02 05:35:16;;;;;;;11.80;3.93;;;;;;;12.57;100.00;100252.06;4989512;28;20207;-65
2022/10/02 05:38:08;;;;;;;14.00;4.40;;;;;;;12.55;100.00;100253.09;4979843;28;20182;-65
2022/10/02 05:40:46;;;;;;;14.97;4.10;;;;;;;12.57;100.00;100261.56;4983057;28;20238;-66
2022/10/02 05:43:24;;;;;;;13.10;4.30;;;;;;;12.52;100.00;100267.00;4988801;28;20187;-66
2022/10/02 05:46:00;;;;;;;12.13;3.73;;;;;;;12.55;100.00;100264.25;4994177;28;20241;-66
2022/10/02 05:48:37;;;;;;;8.67;4.10;;;;;;;12.56;100.00;100272.81;4996027;28;20250;-66
2022/10/02 05:51:09;;;;;;;13.37;3.73;;;;;;;12.59;100.00;100281.19;4987440;28;20257;-65
2022/10/02 05:53:42;;;;;;;10.50;3.60;;;;;;;12.68;100.00;100273.84;4994592;28;20245;-66
2022/10/02 05:56:21;;;;;;;12.03;4.07;;;;;;;12.66;100.00;100276.50;4993470;28;20183;-66
2022/10/02 05:58:57;;;;;;;12.67;3.97;;;;;;;12.52;100.00;100274.75;4995697;28;20182;-66
2022/10/02 06:01:30;;;;;;;10.93;3.47;;;;;;;12.58;100.00;100273.56;4995354;28;20222;-66
2022/10/02 06:04:12;;;;;;;16.60;3.43;;;;;;;12.55;100.00;100271.16;4993288;28;20242;-66
2022/10/02 06:06:43;;;;;;;9.93;3.37;;;;;;;12.60;100.00;100271.69;4991881;28;20183;-66
2022/10/02 06:09:19;;;;;;;12.60;3.70;;;;;;;12.55;100.00;100274.56;4995065;28;20194;-65
2022/10/02 06:12:03;;;;;;;12.17;3.77;;;;;;;12.59;100.00;100270.88;4973544;28;20363;-66
2022/10/02 06:14:42;;;;;;;6.77;3.00;;;;;;;12.58;100.00;100266.63;4973353;28;20275;-66
2022/10/02 06:17:29;;;;;;;12.13;3.63;;;;;;;12.55;100.00;100266.84;4971994;28;20191;-67
2022/10/02 06:20:13;;;;;;;12.40;3.23;;;;;;;12.45;100.00;100262.31;4975403;28;20183;-67
2022/10/02 06:22:48;;;;;;;9.10;3.27;;;;;;;12.52;100.00;100268.75;4975554;28;20270;-67
2022/10/02 06:25:23;;;;;;;14.23;2.97;;;;;;;12.46;100.00;100258.81;4992063;28;20187;-67
2022/10/02 06:27:57;;;;;;;11.57;3.27;;;;;;;12.46;100.00;100258.81;4993062;28;20270;-67
2022/10/02 06:30:22;;;;;;;13.27;2.77;;;;;;;12.56;100.00;100273.63;4985653;28;20231;-67
2022/10/02 06:32:53;;;;;;;8.83;2.23;;;;;;;12.46;100.00;100269.13;5007079;28;20222;-67
2022/10/02 06:35:33;;;;;;;11.67;3.10;;;;;;;12.53;100.00;100278.16;4993314;28;20210;-66
2022/10/02 06:38:15;;;;;;;5.90;2.50;;;;;;;12.37;100.00;100271.34;4993983;28;20241;-67
2022/10/02 06:41:19;;;;;;;7.77;2.73;;;;;;;12.47;100.00;100276.78;4983748;28;20736;-66
2022/10/02 06:44:03;;;;;;;9.63;2.60;;;;;;;12.37;100.00;100279.06;4960374;28;20585;-65
2022/10/02 06:46:52;;;;;;;6.10;2.67;;;;;;;12.40;100.00;100283.22;4993259;28;20249;-65
2022/10/02 06:49:43;;;;;;;11.37;2.70;;;;;;;12.49;100.00;100290.44;4993019;28;20188;-65
2022/10/02 06:52:36;;;;;;;6.43;2.30;;;;;;;12.39;100.00;100278.97;4990568;28;20258;-65
2022/10/02 06:55:34;;;;;;;6.63;2.70;;;;;;;12.30;100.00;100285.50;4988293;28;20635;-64
2022/10/02 06:58:22;;;;;;;7.20;3.00;;;;;;;12.27;100.00;100288.28;4988850;28;20278;-65
2022/10/02 07:01:25;;;;;;;8.70;2.90;;;;;;;12.35;100.00;100292.97;4974274;28;20313;-65
2022/10/02 07:04:31;;;;;;;8.30;2.80;;;;;;;12.46;100.00;100297.50;4984456;28;20625;-65
2022/10/02 07:07:09;;;;;;;7.23;2.60;;;;;;;12.62;100.00;100294.84;4981468;28;20191;-65
2022/10/02 07:10:02;;;;;;;5.97;2.20;;;;;;;12.63;100.00;100288.75;4993965;28;20187;-66
2022/10/02 07:12:56;;;;;;;5.67;2.27;;;;;;;12.55;100.00;100291.78;4977262;28;20227;-65
2022/10/02 07:15:46;;;;;;;8.77;2.50;;;;;;;12.44;100.00;100289.88;4986285;28;20215;-65
2022/10/02 07:18:29;;;;;;;6.00;2.27;;;;;;;12.49;100.00;100293.00;4990730;28;20727;-65
2022/10/02 07:21:06;;;;;;;6.17;2.53;;;;;;;12.58;100.00;100294.22;4986165;28;20238;-64
2022/10/02 07:23:54;;;;;;;10.83;3.03;;;;;;;12.50;100.00;100298.97;5000510;28;20237;-64
2022/10/02 07:26:26;;;;;;;8.33;2.60;;;;;;;12.55;100.00;100302.13;5001162;28;20659;-64
2022/10/02 07:29:15;;;;;;;5.73;2.50;;;;;;;12.49;100.00;100300.75;4992930;28;20277;-64
2022/10/02 07:31:59;;;;;;;7.67;3.43;;;;;;;12.54;100.00;100297.88;4936235;28;20330;-64
2022/10/02 07:34:43;;;;;;;7.37;2.57;;;;;;;12.69;100.00;100291.81;4993500;28;20199;-65
2022/10/02 07:37:37;;;;;;;5.40;1.93;;;;;;;12.55;100.00;100296.94;4993943;28;20210;-64
2022/10/02 07:40:40;;;;;;;5.13;2.10;;;;;;;12.55;100.00;100302.97;4989351;28;20544;-65
2022/10/02 07:43:43;;;;;;;6.40;2.23;;;;;;;12.58;100.00;100310.50;5003624;28;20218;-65
2022/10/02 07:46:30;;;;;;;6.10;1.77;;;;;;;12.54;100.00;100319.34;4991750;28;20282;-64
2022/10/02 07:49:18;;;;;;;5.53;1.93;;;;;;;12.62;100.00;100312.91;4992138;28;20643;-65
2022/10/02 07:51:53;;;;;;;4.37;1.60;;;;;;;12.59;100.00;100311.34;4983754;28;20309;-65
2022/10/02 07:54:34;;;;;;;4.27;1.60;;;;;;;12.56;100.00;100307.19;4993490;28;20171;-65
2022/10/02 07:57:49;;;;;;;4.37;1.77;;;;;;;12.59;100.00;100303.59;4994301;28;20183;-64
2022/10/02 08:00:21;;;;;;;6.07;1.80;;;;;;;12.68;100.00;100303.03;4975758;28;20242;-64
2022/10/02 08:02:49;;;;;;;5.93;2.57;;;;;;;12.59;100.00;100304.44;5002721;28;20227;-65
2022/10/02 08:05:35;;;;;;;3.57;1.43;;;;;;;12.65;100.00;100316.16;4991776;28;20246;-64
2022/10/02 08:08:14;;;;;;;4.17;1.60;;;;;;;12.79;100.00;100311.88;4992756;28;20191;-64
2022/10/02 08:10:46;;;;;;;6.67;1.80;;;;;;;12.82;100.00;100316.88;4984593;28;20610;-64
2022/10/02 08:13:19;;;;;;;3.17;1.73;;;;;;;12.83;100.00;100316.78;4991365;28;20233;-65
2022/10/02 08:15:49;;;;;;;6.17;1.77;;;;;;;12.86;100.00;100315.75;4989829;28;20218;-65
2022/10/02 08:18:45;;;;;;;4.77;1.70;;;;;;;12.75;100.00;100322.41;4991061;28;20183;-65
2022/10/02 08:21:14;;;;;;;4.53;1.70;;;;;;;12.98;100.00;100316.78;4942519;28;20238;-65
2022/10/02 08:24:05;;;;;;;3.33;1.57;;;;;;;12.94;100.00;100318.72;4991623;28;20176;-66
2022/10/02 08:26:54;;;;;;;3.10;1.77;;;;;;;13.15;100.00;100303.66;4992157;28;20279;-65
2022/10/02 08:29:23;;;;;;;3.30;1.53;;;;;;;13.29;100.00;100307.13;4993864;28;20666;-65
2022/10/02 08:31:51;;;;;;;3.17;1.57;;;;;;;13.38;100.00;100299.66;4996179;28;20309;-65
2022/10/02 08:34:22;;;;;;;4.90;1.50;;;;;;;13.37;100.00;100304.88;4992569;28;20531;-65
2022/10/02 08:36:58;;;;;;;4.07;2.07;;;;;;;13.33;100.00;100311.97;4991027;28;20187;-65
2022/10/02 08:39:26;;;;;;;5.97;2.03;;;;;;;13.48;100.00;100309.41;4993507;28;20253;-65
2022/10/02 08:42:19;;;;;;;2.57;1.70;;;;;;;13.42;100.00;100304.63;4982908;28;20305;-65
2022/10/02 08:44:47;;;;;;;1.87;1.70;;;;;;;13.41;100.00;100314.13;4984417;28;20194;-65
2022/10/02 08:47:48;;;;;;;4.20;2.23;;;;;;;13.45;100.00;100317.38;4992074;28;20707;-65
2022/10/02 08:50:40;;;;;;;4.57;2.10;;;;;;;13.39;100.00;100328.91;4981380;28;20534;-64
2022/10/02 08:53:28;;;;;;;1.73;1.43;;;;;;;13.37;100.00;100333.28;5002520;28;20179;-65
2022/10/02 08:56:20;;;;;;;2.10;1.50;;;;;;;13.24;100.00;100320.31;4953341;28;20191;-66
2022/10/02 08:59:31;;;;;;;5.80;2.03;;;;;;;13.19;100.00;100323.19;4986003;28;20199;-64
2022/10/02 09:02:11;;;;;;;2.60;1.30;;;;;;;13.14;100.00;100317.47;4980794;28;20742;-64
2022/10/02 09:05:14;;;;;;;4.50;1.80;;;;;;;13.20;100.00;100321.44;4990526;28;20725;-64
2022/10/02 09:08:06;;;;;;;4.23;1.80;;;;;;;13.37;100.00;100321.25;4991448;28;20676;-66
2022/10/02 09:11:03;;;;;;;4.03;1.60;;;;;;;13.24;100.00;100320.31;4986442;28;20293;-66
2022/10/02 09:13:54;;;;;;;5.87;1.90;;;;;;;13.23;100.00;100310.91;4991168;28;20183;-65
2022/10/02 09:16:38;;;;;;;4.83;2.03;;;;;;;13.25;100.00;100306.50;4991281;28;20647;-66
2022/10/02 09:19:18;;;;;;;3.10;1.47;;;;;;;13.31;100.00;100307.84;4999660;28;20646;-65
2022/10/02 09:21:54;;;;;;;2.97;1.60;;;;;;;13.37;100.00;100308.34;4995214;28;21017;-66
2022/10/02 09:24:58;;;;;;;1.80;1.57;;;;;;;13.35;100.00;100307.56;5002730;28;20187;-66
2022/10/02 09:27:51;;;;;;;2.07;1.50;;;;;;;13.39;100.00;100314.22;4992240;28;20258;-66
2022/10/02 09:30:41;;;;;;;2.43;1.40;;;;;;;13.31;100.00;100329.34;4973512;28;20979;-66
2022/10/02 09:33:27;;;;;;;3.13;1.57;;;;;;;13.48;100.00;100336.09;4990287;28;20600;-66
2022/10/02 09:36:23;;;;;;;2.17;1.70;;;;;;;13.50;100.00;100331.63;4983894;28;20211;-65
2022/10/02 09:38:55;;;;;;;2.43;1.40;;;;;;;13.65;100.00;100329.00;4989807;28;20195;-66
2022/10/02 09:41:48;;;;;;;3.47;1.30;;;;;;;13.55;100.00;100323.59;4973243;28;20342;-66
2022/10/02 09:44:38;;;;;;;1.77;1.53;;;;;;;13.60;100.00;100325.91;4972611;28;20231;-65
2022/10/02 09:47:10;;;;;;;5.20;1.60;;;;;;;13.57;100.00;100324.34;4976556;28;20228;-65
2022/10/02 09:50:00;;;;;;;2.30;1.30;;;;;;;13.48;100.00;100314.56;4974967;28;20640;-66
2022/10/02 09:52:41;;;;;;;1.90;1.20;;;;;;;13.51;100.00;100311.81;4996442;28;20237;-65
2022/10/02 09:55:35;;;;;;;1.70;1.43;;;;;;;13.44;100.00;100313.94;4986030;28;20195;-66
2022/10/02 09:58:45;;;;;;;1.73;1.10;;;;;;;13.25;100.00;100309.06;4991376;28;20198;-66
2022/10/02 10:01:28;;;;;;;1.83;1.10;;;;;;;13.44;100.00;100305.38;4990228;28;20321;-65
2022/10/02 10:04:28;;;;;;;3.00;1.57;;;;;;;13.28;100.00;100301.13;4996072;28;20218;-65
2022/10/02 10:07:31;;;;;;;4.57;1.30;;;;;;;13.32;100.00;100292.28;4982364;28;20186;-66
2022/10/02 10:10:08;;;;;;;2.23;1.20;;;;;;;13.48;100.00;100294.75;4987988;28;20610;-68
2022/10/02 10:13:07;;;;;;;1.30;1.20;;;;;;;13.41;100.00;100296.06;4961533;28;20235;-66
2022/10/02 10:15:55;;;;;;;1.07;0.93;;;;;;;13.39;100.00;100288.38;4972031;28;20192;-65
2022/10/02 10:18:41;;;;;;;2.13;1.27;;;;;;;13.50;100.00;100285.13;4968801;28;20678;-66
2022/10/02 10:21:49;;;;;;;1.20;1.10;;;;;;;13.49;100.00;100283.47;4979056;28;20290;-66
2022/10/02 10:24:45;;;;;;;2.13;1.40;;;;;;;13.77;100.00;100311.88;4985893;28;20631;-72
2022/10/02 10:27:39;;;;;;;2.93;1.30;;;;;;;13.75;100.00;100326.66;4969557;28;20308;-64
2022/10/02 10:30:33;;;;;;;1.67;1.50;;;;;;;13.61;100.00;100335.31;4960194;28;20242;-65
2022/10/02 10:33:24;;;;;;;1.50;1.13;;;;;;;13.54;100.00;100335.72;4984324;28;20569;-67
2022/10/02 10:36:07;;;;;;;1.40;1.17;;;;;;;13.42;100.00;100331.31;4995266;28;20207;-62
2022/10/02 10:38:51;;;;;;;3.50;0.90;;;;;;;13.51;100.00;100342.81;4993451;28;20175;-61
2022/10/02 10:41:35;;;;;;;0.97;0.70;;;;;;;13.67;100.00;100347.84;4983786;28;20305;-65
2022/10/02 10:44:15;;;;;;;0.70;0.70;;;;;;;13.65;100.00;100341.94;4991702;28;20238;-67
2022/10/02 10:47:25;;;;;;;0.87;0.77;;;;;;;13.69;100.00;100339.06;5009519;28;20322;-68
2022/10/02 10:50:03;;;;;;;1.60;0.87;;;;;;;13.82;100.00;100343.44;4992672;28;20184;-63
2022/10/02 10:53:02;;;;;;;1.10;0.90;;;;;;;13.85;100.00;100345.81;4967515;28;20230;-65
2022/10/02 10:55:57;;;;;;;0.80;0.80;;;;;;;13.82;100.00;100356.38;4993281;28;20241;-69
2022/10/02 10:58:33;;;;;;;3.20;0.80;;;;;;;13.90;100.00;100348.13;4988239;28;20603;-69
2022/10/02 11:01:41;;;;;;;1.07;0.80;;;;;;;13.78;100.00;100337.66;4988876;28;20558;-68
2022/10/02 11:04:35;;;;;;;1.47;0.97;;;;;;;13.92;100.00;100331.56;4988748;28;20198;-67
2022/10/02 11:07:06;;;;;;;2.10;0.70;;;;;;;13.96;100.00;100339.97;4993129;28;20192;-68
2022/10/02 11:09:57;;;;;;;1.03;0.90;;;;;;;14.03;100.00;100336.06;4977058;28;20636;-67
2022/10/02 11:12:43;;;;;;;1.57;0.97;;;;;;;14.22;100.00;100335.66;4972469;28;20234;-66
2022/10/02 11:15:33;;;;;;;1.93;0.97;;;;;;;14.28;100.00;100337.84;4983167;28;20698;-66
2022/10/02 11:18:06;;;;;;;1.23;1.13;;;;;;;14.25;100.00;100334.63;4981360;28;20204;-66
2022/10/02 11:21:21;;;;;;;2.20;0.73;;;;;;;14.23;100.00;100331.31;4984759;28;20237;-67
2022/10/02 11:24:19;;;;;;;2.90;0.93;;;;;;;14.34;100.00;100327.09;4997493;28;20191;-67
2022/10/02 11:27:22;;;;;;;1.97;0.90;;;;;;;14.32;100.00;100341.88;4994321;28;20238;-67
2022/10/02 11:30:12;;;;;;;0.93;0.90;;;;;;;14.36;100.00;100345.09;4982052;28;20209;-67
2022/10/02 11:32:47;;;;;;;0.97;0.80;;;;;;;14.39;100.00;100349.22;4943046;28;20227;-68
2022/10/02 11:35:27;;;;;;;0.60;0.60;;;;;;;14.28;100.00;100357.72;4967114;28;20219;-66
2022/10/02 11:38:08;;;;;;;0.70;0.70;;;;;;;14.11;100.00;100359.66;4972263;28;20219;-67
2022/10/02 11:41:08;;;;;;;1.57;0.73;;;;;;;14.08;100.00;100349.53;4971309;28;20692;-67
2022/10/02 11:44:05;;;;;;;1.20;0.70;;;;;;;14.11;100.00;100344.13;4988745;28;20302;-67
2022/10/02 11:46:40;;;;;;;1.23;0.90;;;;;;;14.18;100.00;100349.75;4991457;28;20227;-68
2022/10/02 11:49:12;;;;;;;1.23;0.70;;;;;;;14.33;100.00;100361.66;4993440;28;20234;-67
2022/10/02 11:52:04;;;;;;;0.60;0.60;;;;;;;14.35;100.00;100349.44;4994359;28;20227;-68
2022/10/02 11:54:43;;;;;;;0.60;0.60;;;;;;;14.41;100.00;100353.38;4989645;28;20192;-68
2022/10/02 11:58:00;;;;;;;1.03;0.60;;;;;;;14.52;100.00;100353.50;4979774;28;20214;-62
2022/10/02 12:00:55;;;;;;;0.60;0.60;;;;;;;14.48;100.00;100349.44;4962230;28;20329;-71
2022/10/02 12:03:30;;;;;;;2.07;0.97;;;;;;;14.55;100.00;100346.44;4988165;28;20195;-72
2022/10/02 12:06:23;;;;;;;0.60;0.60;;;;;;;14.51;100.00;100344.09;4973848;28;20241;-70
2022/10/02 12:09:16;;;;;;;0.70;0.70;;;;;;;14.69;100.00;100343.81;4967083;28;20191;-67
2022/10/02 12:12:06;;;;;;;3.00;0.80;;;;;;;14.72;100.00;100329.81;4958164;28;20235;-70
2022/10/02 12:14:44;;;;;;;0.57;0.53;;;;;;;14.75;100.00;100338.22;4971637;28;20769;-72
2022/10/02 12:17:21;;;;;;;0.97;0.70;;;;;;;14.90;100.00;100341.50;4973676;28;20281;-71
2022/10/02 12:26:57;;;;;;;1.67;0.77;;;;;;;14.98;100.00;100338.38;4973956;28;20611;-73
2022/10/02 12:29:42;;;;;;;2.97;0.60;;;;;;;15.04;100.00;100337.94;4969964;28;20187;-73
2022/10/02 12:32:37;;;;;;;1.00;0.70;;;;;;;14.73;100.00;100341.84;4972179;28;20361;-69